sensor_id;sensor_type;location;lat;lon;timestamp;P1;durP1;ratioP1;P2;durP2;ratioP2
60306;SDS011;46155;52.364;6.580;2023-06-26T03:01:44;24.33;;;22.07;;
60306;SDS011;46155;52.364;6.580;2023-06-26T03:04:09;21.60;;;19.57;;
60306;SDS011;46155;52.364;6.580;2023-06-26T03:06:35;22.37;;;20.17;;
60306;SDS011;46155;52.364;6.580;2023-06-26T03:09:01;23.33;;;20.13;;
60306;SDS011;46155;52.364;6.580;2023-06-26T03:11:28;22.67;;;20.57;;
60306;SDS011;46155;52.364;6.580;2023-06-26T03:13:53;21.93;;;19.73;;
60306;SDS011;46155;52.364;6.580;2023-06-26T03:16:19;23.93;;;21.50;;
60306;SDS011;46155;52.364;6.580;2023-06-26T03:18:44;22.57;;;20.30;;
60306;SDS011;46155;52.364;6.580;2023-06-26T03:21:10;22.83;;;20.37;;
60306;SDS011;46155;52.364;6.580;2023-06-26T03:23:35;20.73;;;18.63;;
60306;SDS011;46155;52.364;6.580;2023-06-26T03:26:00;20.97;;;18.80;;
60306;SDS011;46155;52.364;6.580;2023-06-26T03:28:25;19.67;;;17.60;;
60306;SDS011;46155;52.364;6.580;2023-06-26T03:30:51;22.50;;;19.80;;
60306;SDS011;46155;52.364;6.580;2023-06-26T03:33:16;22.97;;;18.87;;
60306;SDS011;46155;52.364;6.580;2023-06-26T03:35:42;20.80;;;18.57;;
60306;SDS011;46155;52.364;6.580;2023-06-26T03:38:07;19.00;;;17.13;;
60306;SDS011;46155;52.364;6.580;2023-06-26T03:40:32;19.67;;;17.37;;
60306;SDS011;46155;52.364;6.580;2023-06-26T03:42:58;18.80;;;16.90;;
60306;SDS011;46155;52.364;6.580;2023-06-26T03:45:23;23.17;;;18.03;;
60306;SDS011;46155;52.364;6.580;2023-06-26T03:47:48;18.87;;;16.47;;
60306;SDS011;46155;52.364;6.580;2023-06-26T03:50:15;22.73;;;16.60;;
60306;SDS011;46155;52.364;6.580;2023-06-26T03:52:41;19.30;;;17.30;;
60306;SDS011;46155;52.364;6.580;2023-06-26T03:55:06;19.30;;;16.03;;
60306;SDS011;46155;52.364;6.580;2023-06-26T03:57:31;17.73;;;15.83;;
60306;SDS011;46155;52.364;6.580;2023-06-26T03:59:57;17.97;;;16.07;;
60306;SDS011;46155;52.364;6.580;2023-06-26T04:02:22;17.83;;;16.00;;
60306;SDS011;46155;52.364;6.580;2023-06-26T04:04:48;18.37;;;15.97;;
60306;SDS011;46155;52.364;6.580;2023-06-26T04:07:13;17.00;;;15.30;;
60306;SDS011;46155;52.364;6.580;2023-06-26T04:09:38;15.97;;;14.57;;
60306;SDS011;46155;52.364;6.580;2023-06-26T04:12:04;17.00;;;15.30;;
60306;SDS011;46155;52.364;6.580;2023-06-26T04:14:29;15.80;;;14.20;;
60306;SDS011;46155;52.364;6.580;2023-06-26T04:16:54;16.10;;;14.37;;
60306;SDS011;46155;52.364;6.580;2023-06-26T04:19:20;15.27;;;13.40;;
60306;SDS011;46155;52.364;6.580;2023-06-26T04:21:45;16.80;;;15.30;;
60306;SDS011;46155;52.364;6.580;2023-06-26T04:24:11;15.90;;;14.30;;
60306;SDS011;46155;52.364;6.580;2023-06-26T04:26:36;15.93;;;13.70;;
60306;SDS011;46155;52.364;6.580;2023-06-26T04:29:02;18.13;;;15.97;;
60306;SDS011;46155;52.364;6.580;2023-06-26T04:31:28;17.80;;;15.57;;
60306;SDS011;46155;52.364;6.580;2023-06-26T04:33:53;17.90;;;16.03;;
60306;SDS011;46155;52.364;6.580;2023-06-26T04:36:20;16.97;;;15.37;;
60306;SDS011;46155;52.364;6.580;2023-06-26T04:38:46;17.63;;;15.83;;
60306;SDS011;46155;52.364;6.580;2023-06-26T04:41:13;15.43;;;14.07;;
60306;SDS011;46155;52.364;6.580;2023-06-26T04:43:38;17.97;;;14.47;;
60306;SDS011;46155;52.364;6.580;2023-06-26T04:46:03;17.30;;;14.53;;
60306;SDS011;46155;52.364;6.580;2023-06-26T04:48:29;14.50;;;12.97;;
60306;SDS011;46155;52.364;6.580;2023-06-26T04:50:56;15.57;;;12.73;;
60306;SDS011;46155;52.364;6.580;2023-06-26T04:53:21;14.60;;;13.13;;
60306;SDS011;46155;52.364;6.580;2023-06-26T04:55:48;14.47;;;12.53;;
60306;SDS011;46155;52.364;6.580;2023-06-26T04:58:14;17.97;;;11.73;;
60306;SDS011;46155;52.364;6.580;2023-06-26T05:00:39;15.10;;;12.03;;
60306;SDS011;46155;52.364;6.580;2023-06-26T05:03:07;13.80;;;11.40;;
60306;SDS011;46155;52.364;6.580;2023-06-26T05:05:33;14.83;;;13.13;;
60306;SDS011;46155;52.364;6.580;2023-06-26T05:07:58;14.07;;;12.13;;
60306;SDS011;46155;52.364;6.580;2023-06-26T05:10:23;12.00;;;10.93;;
60306;SDS011;46155;52.364;6.580;2023-06-26T05:12:49;13.00;;;11.40;;
60306;SDS011;46155;52.364;6.580;2023-06-26T05:15:14;14.17;;;11.07;;
60306;SDS011;46155;52.364;6.580;2023-06-26T05:17:39;16.97;;;11.73;;
60306;SDS011;46155;52.364;6.580;2023-06-26T05:20:05;12.73;;;11.00;;
60306;SDS011;46155;52.364;6.580;2023-06-26T05:22:33;13.60;;;10.67;;
60306;SDS011;46155;52.364;6.580;2023-06-26T05:25:00;15.97;;;12.73;;
60306;SDS011;46155;52.364;6.580;2023-06-26T05:27:27;12.33;;;10.53;;
60306;SDS011;46155;52.364;6.580;2023-06-26T05:29:53;14.87;;;10.43;;
60306;SDS011;46155;52.364;6.580;2023-06-26T05:32:18;11.67;;;10.57;;
60306;SDS011;46155;52.364;6.580;2023-06-26T05:34:47;17.57;;;11.67;;
60306;SDS011;46155;52.364;6.580;2023-06-26T05:37:18;12.30;;;11.00;;
60306;SDS011;46155;52.364;6.580;2023-06-26T05:39:46;18.90;;;10.50;;
60306;SDS011;46155;52.364;6.580;2023-06-26T05:42:12;14.47;;;10.30;;
60306;SDS011;46155;52.364;6.580;2023-06-26T05:44:38;12.73;;;9.70;;
60306;SDS011;46155;52.364;6.580;2023-06-26T05:47:03;12.50;;;10.27;;
60306;SDS011;46155;52.364;6.580;2023-06-26T05:49:29;15.90;;;11.53;;
60306;SDS011;46155;52.364;6.580;2023-06-26T05:51:54;14.57;;;9.93;;
60306;SDS011;46155;52.364;6.580;2023-06-26T05:54:20;15.67;;;10.53;;
60306;SDS011;46155;52.364;6.580;2023-06-26T05:56:46;12.47;;;10.50;;
60306;SDS011;46155;52.364;6.580;2023-06-26T05:59:12;16.53;;;10.27;;
60306;SDS011;46155;52.364;6.580;2023-06-26T06:01:40;13.20;;;10.80;;
60306;SDS011;46155;52.364;6.580;2023-06-26T06:04:05;16.50;;;10.90;;
60306;SDS011;46155;52.364;6.580;2023-06-26T06:06:31;17.87;;;10.93;;
60306;SDS011;46155;52.364;6.580;2023-06-26T06:08:56;17.07;;;11.10;;
60306;SDS011;46155;52.364;6.580;2023-06-26T06:11:21;14.60;;;10.57;;
60306;SDS011;46155;52.364;6.580;2023-06-26T06:13:47;22.03;;;10.87;;
60306;SDS011;46155;52.364;6.580;2023-06-26T06:16:13;14.50;;;10.57;;
60306;SDS011;46155;52.364;6.580;2023-06-26T06:18:38;13.97;;;10.47;;
60306;SDS011;46155;52.364;6.580;2023-06-26T06:21:03;14.53;;;10.47;;
60306;SDS011;46155;52.364;6.580;2023-06-26T06:23:29;14.53;;;10.67;;
60306;SDS011;46155;52.364;6.580;2023-06-26T06:25:54;11.50;;;10.37;;
60306;SDS011;46155;52.364;6.580;2023-06-26T06:28:19;15.30;;;10.50;;
60306;SDS011;46155;52.364;6.580;2023-06-26T06:30:45;15.43;;;9.80;;
60306;SDS011;46155;52.364;6.580;2023-06-26T06:33:12;18.13;;;10.33;;
60306;SDS011;46155;52.364;6.580;2023-06-26T06:35:38;12.20;;;9.20;;
60306;SDS011;46155;52.364;6.580;2023-06-26T06:38:03;11.10;;;9.17;;
60306;SDS011;46155;52.364;6.580;2023-06-26T06:40:28;14.53;;;9.97;;
60306;SDS011;46155;52.364;6.580;2023-06-26T06:42:54;11.97;;;9.37;;
60306;SDS011;46155;52.364;6.580;2023-06-26T06:45:19;19.33;;;9.80;;
60306;SDS011;46155;52.364;6.580;2023-06-26T06:47:44;12.63;;;10.00;;
60306;SDS011;46155;52.364;6.580;2023-06-26T06:50:10;11.10;;;9.77;;
60306;SDS011;46155;52.364;6.580;2023-06-26T06:52:36;10.53;;;9.57;;
60306;SDS011;46155;52.364;6.580;2023-06-26T06:55:05;10.63;;;9.50;;
60306;SDS011;46155;52.364;6.580;2023-06-26T06:57:33;9.43;;;8.60;;
60306;SDS011;46155;52.364;6.580;2023-06-26T07:00:03;9.70;;;8.80;;
60306;SDS011;46155;52.364;6.580;2023-06-26T07:02:30;9.23;;;8.40;;
60306;SDS011;46155;52.364;6.580;2023-06-26T07:04:55;9.90;;;8.83;;
60306;SDS011;46155;52.364;6.580;2023-06-26T07:07:20;8.77;;;7.93;;
60306;SDS011;46155;52.364;6.580;2023-06-26T07:09:46;8.60;;;7.83;;
60306;SDS011;46155;52.364;6.580;2023-06-26T07:12:11;8.77;;;8.07;;
60306;SDS011;46155;52.364;6.580;2023-06-26T07:14:36;12.50;;;7.60;;
60306;SDS011;46155;52.364;6.580;2023-06-26T07:17:02;7.53;;;6.97;;
60306;SDS011;46155;52.364;6.580;2023-06-26T07:19:27;7.80;;;6.97;;
60306;SDS011;46155;52.364;6.580;2023-06-26T07:21:53;8.40;;;7.70;;
60306;SDS011;46155;52.364;6.580;2023-06-26T07:24:18;7.70;;;7.00;;
60306;SDS011;46155;52.364;6.580;2023-06-26T07:26:43;8.07;;;7.37;;
60306;SDS011;46155;52.364;6.580;2023-06-26T07:29:09;9.23;;;7.47;;
60306;SDS011;46155;52.364;6.580;2023-06-26T07:31:34;7.87;;;7.23;;
60306;SDS011;46155;52.364;6.580;2023-06-26T07:33:59;7.83;;;6.70;;
60306;SDS011;46155;52.364;6.580;2023-06-26T07:36:25;8.10;;;7.47;;
60306;SDS011;46155;52.364;6.580;2023-06-26T07:38:50;8.20;;;7.60;;
60306;SDS011;46155;52.364;6.580;2023-06-26T07:41:15;7.87;;;7.37;;
60306;SDS011;46155;52.364;6.580;2023-06-26T07:43:41;7.67;;;6.97;;
60306;SDS011;46155;52.364;6.580;2023-06-26T07:46:06;7.50;;;6.90;;
60306;SDS011;46155;52.364;6.580;2023-06-26T07:48:31;7.60;;;6.90;;
60306;SDS011;46155;52.364;6.580;2023-06-26T07:50:57;8.00;;;7.10;;
60306;SDS011;46155;52.364;6.580;2023-06-26T07:53:22;7.23;;;6.80;;
60306;SDS011;46155;52.364;6.580;2023-06-26T07:55:47;7.60;;;7.00;;
60306;SDS011;46155;52.364;6.580;2023-06-26T07:58:13;7.60;;;6.90;;
60306;SDS011;46155;52.364;6.580;2023-06-26T08:00:38;8.73;;;7.00;;
60306;SDS011;46155;52.364;6.580;2023-06-26T08:03:03;7.73;;;6.37;;
60306;SDS011;46155;52.364;6.580;2023-06-26T08:05:29;10.70;;;7.03;;
60306;SDS011;46155;52.364;6.580;2023-06-26T08:07:54;6.40;;;6.00;;
60306;SDS011;46155;52.364;6.580;2023-06-26T08:10:20;7.60;;;7.00;;
60306;SDS011;46155;52.364;6.580;2023-06-26T08:12:45;9.40;;;7.47;;
60306;SDS011;46155;52.364;6.580;2023-06-26T08:15:11;7.97;;;7.32;;
60306;SDS011;46155;52.364;6.580;2023-06-26T08:17:37;7.70;;;7.00;;
60306;SDS011;46155;52.364;6.580;2023-06-26T08:20:03;7.87;;;7.33;;
60306;SDS011;46155;52.364;6.580;2023-06-26T08:22:29;6.77;;;6.17;;
60306;SDS011;46155;52.364;6.580;2023-06-26T08:24:55;7.83;;;7.10;;
60306;SDS011;46155;52.364;6.580;2023-06-26T08:27:21;7.30;;;6.53;;
60306;SDS011;46155;52.364;6.580;2023-06-26T08:29:46;9.60;;;8.50;;
60306;SDS011;46155;52.364;6.580;2023-06-26T08:32:11;7.30;;;6.70;;
60306;SDS011;46155;52.364;6.580;2023-06-26T08:34:36;8.60;;;7.80;;
60306;SDS011;46155;52.364;6.580;2023-06-26T08:37:02;10.00;;;6.60;;
60306;SDS011;46155;52.364;6.580;2023-06-26T08:39:27;8.43;;;7.73;;
60306;SDS011;46155;52.364;6.580;2023-06-26T08:41:53;7.70;;;6.93;;
60306;SDS011;46155;52.364;6.580;2023-06-26T08:44:18;9.77;;;7.00;;
60306;SDS011;46155;52.364;6.580;2023-06-26T08:46:47;7.60;;;7.00;;
60306;SDS011;46155;52.364;6.580;2023-06-26T08:49:25;10.17;;;7.70;;
60306;SDS011;46155;52.364;6.580;2023-06-26T08:52:02;8.30;;;7.60;;
60306;SDS011;46155;52.364;6.580;2023-06-26T08:54:34;7.83;;;7.03;;
60306;SDS011;46155;52.364;6.580;2023-06-26T08:57:05;7.83;;;7.10;;
60306;SDS011;46155;52.364;6.580;2023-06-26T08:59:32;7.90;;;7.20;;
60306;SDS011;46155;52.364;6.580;2023-06-26T09:01:57;9.60;;;7.47;;
60306;SDS011;46155;52.364;6.580;2023-06-26T09:04:23;7.40;;;6.90;;
60306;SDS011;46155;52.364;6.580;2023-06-26T09:06:50;9.10;;;6.50;;
60306;SDS011;46155;52.364;6.580;2023-06-26T09:09:15;7.00;;;6.47;;
60306;SDS011;46155;52.364;6.580;2023-06-26T09:11:40;7.07;;;6.23;;
60306;SDS011;46155;52.364;6.580;2023-06-26T09:14:06;7.57;;;6.97;;
60306;SDS011;46155;52.364;6.580;2023-06-26T09:16:38;10.07;;;7.17;;
60306;SDS011;46155;52.364;6.580;2023-06-26T09:19:09;9.73;;;7.93;;
60306;SDS011;46155;52.364;6.580;2023-06-26T09:21:37;8.27;;;7.67;;
60306;SDS011;46155;52.364;6.580;2023-06-26T09:24:03;7.53;;;6.93;;
60306;SDS011;46155;52.364;6.580;2023-06-26T09:26:30;7.57;;;6.97;;
60306;SDS011;46155;52.364;6.580;2023-06-26T09:28:56;9.37;;;7.70;;
60306;SDS011;46155;52.364;6.580;2023-06-26T09:31:23;7.13;;;6.63;;
60306;SDS011;46155;52.364;6.580;2023-06-26T09:33:49;7.57;;;6.97;;
60306;SDS011;46155;52.364;6.580;2023-06-26T09:36:22;7.17;;;6.63;;
60306;SDS011;46155;52.364;6.580;2023-06-26T09:38:48;9.43;;;8.53;;
60306;SDS011;46155;52.364;6.580;2023-06-26T09:41:17;8.63;;;7.50;;
60306;SDS011;46155;52.364;6.580;2023-06-26T09:43:49;8.40;;;7.67;;
60306;SDS011;46155;52.364;6.580;2023-06-26T09:46:25;12.30;;;7.70;;
60306;SDS011;46155;52.364;6.580;2023-06-26T09:49:05;7.17;;;6.67;;
60306;SDS011;46155;52.364;6.580;2023-06-26T09:51:32;8.27;;;7.50;;
60306;SDS011;46155;52.364;6.580;2023-06-26T09:53:59;8.63;;;6.47;;
60306;SDS011;46155;52.364;6.580;2023-06-26T09:56:28;13.23;;;7.70;;
60306;SDS011;46155;52.364;6.580;2023-06-26T09:58:58;7.63;;;6.93;;
60306;SDS011;46155;52.364;6.580;2023-06-26T10:01:26;8.03;;;7.33;;
60306;SDS011;46155;52.364;6.580;2023-06-26T10:03:52;8.27;;;7.57;;
60306;SDS011;46155;52.364;6.580;2023-06-26T10:06:19;7.83;;;7.10;;
60306;SDS011;46155;52.364;6.580;2023-06-26T10:08:48;8.07;;;6.60;;
60306;SDS011;46155;52.364;6.580;2023-06-26T10:11:16;7.20;;;6.60;;
60306;SDS011;46155;52.364;6.580;2023-06-26T10:13:44;8.23;;;7.50;;
60306;SDS011;46155;52.364;6.580;2023-06-26T10:16:12;8.03;;;6.73;;
60306;SDS011;46155;52.364;6.580;2023-06-26T10:18:41;9.03;;;8.17;;
60306;SDS011;46155;52.364;6.580;2023-06-26T10:21:08;7.57;;;7.07;;
60306;SDS011;46155;52.364;6.580;2023-06-26T10:23:36;14.53;;;6.80;;
60306;SDS011;46155;52.364;6.580;2023-06-26T10:26:05;8.73;;;6.77;;
60306;SDS011;46155;52.364;6.580;2023-06-26T10:28:32;6.57;;;6.07;;
60306;SDS011;46155;52.364;6.580;2023-06-26T10:31:00;7.37;;;6.67;;
60306;SDS011;46155;52.364;6.580;2023-06-26T10:33:27;8.47;;;6.90;;
60306;SDS011;46155;52.364;6.580;2023-06-26T10:35:53;7.37;;;6.77;;
60306;SDS011;46155;52.364;6.580;2023-06-26T10:38:57;8.17;;;6.97;;
60306;SDS011;46155;52.364;6.580;2023-06-26T10:41:26;7.73;;;6.93;;
60306;SDS011;46155;52.364;6.580;2023-06-26T10:46:23;8.00;;;7.50;;
60306;SDS011;46155;52.364;6.580;2023-06-26T10:48:58;7.77;;;6.90;;
60306;SDS011;46155;52.364;6.580;2023-06-26T10:51:25;8.37;;;7.57;;
60306;SDS011;46155;52.364;6.580;2023-06-26T10:53:55;9.77;;;7.27;;
60306;SDS011;46155;52.364;6.580;2023-06-26T10:56:21;9.03;;;7.40;;
60306;SDS011;46155;52.364;6.580;2023-06-26T10:59:19;11.10;;;6.87;;
60306;SDS011;46155;52.364;6.580;2023-06-26T11:02:01;8.27;;;7.20;;
60306;SDS011;46155;52.364;6.580;2023-06-26T11:04:36;7.37;;;6.60;;
60306;SDS011;46155;52.364;6.580;2023-06-26T11:07:15;9.33;;;6.67;;
60306;SDS011;46155;52.364;6.580;2023-06-26T11:09:53;7.60;;;6.83;;
60306;SDS011;46155;52.364;6.580;2023-06-26T11:12:41;7.87;;;6.37;;
60306;SDS011;46155;52.364;6.580;2023-06-26T11:17:34;8.47;;;6.50;;
60306;SDS011;46155;52.364;6.580;2023-06-26T11:20:01;7.20;;;6.30;;
60306;SDS011;46155;52.364;6.580;2023-06-26T11:22:26;7.63;;;6.70;;
60306;SDS011;46155;52.364;6.580;2023-06-26T11:24:53;7.97;;;7.10;;
60306;SDS011;46155;52.364;6.580;2023-06-26T11:27:19;7.80;;;6.90;;
60306;SDS011;46155;52.364;6.580;2023-06-26T11:29:47;6.60;;;5.97;;
60306;SDS011;46155;52.364;6.580;2023-06-26T11:32:14;6.90;;;5.90;;
60306;SDS011;46155;52.364;6.580;2023-06-26T11:34:39;6.57;;;6.07;;
60306;SDS011;46155;52.364;6.580;2023-06-26T11:37:07;6.60;;;6.00;;
60306;SDS011;46155;52.364;6.580;2023-06-26T11:39:33;7.23;;;6.50;;
60306;SDS011;46155;52.364;6.580;2023-06-26T11:41:59;9.53;;;6.50;;
60306;SDS011;46155;52.364;6.580;2023-06-26T11:44:24;9.40;;;6.07;;
60306;SDS011;46155;52.364;6.580;2023-06-26T11:46:54;6.27;;;5.77;;
60306;SDS011;46155;52.364;6.580;2023-06-26T11:49:22;6.77;;;6.17;;
60306;SDS011;46155;52.364;6.580;2023-06-26T11:51:48;7.67;;;5.97;;
60306;SDS011;46155;52.364;6.580;2023-06-26T11:54:14;6.63;;;6.00;;
60306;SDS011;46155;52.364;6.580;2023-06-26T11:56:39;7.00;;;6.30;;
60306;SDS011;46155;52.364;6.580;2023-06-26T11:59:06;6.63;;;5.73;;
60306;SDS011;46155;52.364;6.580;2023-06-26T12:01:37;6.97;;;6.27;;
60306;SDS011;46155;52.364;6.580;2023-06-26T12:04:05;5.80;;;5.40;;
60306;SDS011;46155;52.364;6.580;2023-06-26T12:06:36;6.60;;;5.87;;
60306;SDS011;46155;52.364;6.580;2023-06-26T12:09:04;6.90;;;6.40;;
60306;SDS011;46155;52.364;6.580;2023-06-26T12:11:32;7.00;;;5.43;;
60306;SDS011;46155;52.364;6.580;2023-06-26T12:13:59;6.50;;;5.83;;
60306;SDS011;46155;52.364;6.580;2023-06-26T12:16:25;6.23;;;5.83;;
60306;SDS011;46155;52.364;6.580;2023-06-26T12:18:58;7.23;;;5.63;;
60306;SDS011;46155;52.364;6.580;2023-06-26T12:24:02;6.23;;;5.83;;
60306;SDS011;46155;52.364;6.580;2023-06-26T12:26:28;6.50;;;6.10;;
60306;SDS011;46155;52.364;6.580;2023-06-26T12:29:02;9.87;;;5.90;;
60306;SDS011;46155;52.364;6.580;2023-06-26T12:31:29;8.67;;;5.97;;
60306;SDS011;46155;52.364;6.580;2023-06-26T12:33:55;6.37;;;5.97;;
60306;SDS011;46155;52.364;6.580;2023-06-26T12:36:21;6.17;;;5.80;;
60306;SDS011;46155;52.364;6.580;2023-06-26T12:38:48;6.43;;;5.80;;
60306;SDS011;46155;52.364;6.580;2023-06-26T12:41:13;6.27;;;5.90;;
60306;SDS011;46155;52.364;6.580;2023-06-26T12:43:39;6.50;;;6.00;;
60306;SDS011;46155;52.364;6.580;2023-06-26T12:46:05;6.40;;;6.10;;
60306;SDS011;46155;52.364;6.580;2023-06-26T12:48:41;6.13;;;5.50;;
60306;SDS011;46155;52.364;6.580;2023-06-26T12:51:09;6.47;;;5.70;;
60306;SDS011;46155;52.364;6.580;2023-06-26T12:53:35;7.30;;;6.90;;
60306;SDS011;46155;52.364;6.580;2023-06-26T12:56:01;8.13;;;6.27;;
60306;SDS011;46155;52.364;6.580;2023-06-26T12:58:26;6.97;;;5.47;;
60306;SDS011;46155;52.364;6.580;2023-06-26T13:00:52;6.17;;;5.57;;
60306;SDS011;46155;52.364;6.580;2023-06-26T13:03:18;5.50;;;5.20;;
60306;SDS011;46155;52.364;6.580;2023-06-26T13:05:45;6.43;;;5.87;;
60306;SDS011;46155;52.364;6.580;2023-06-26T13:08:11;9.53;;;7.03;;
60306;SDS011;46155;52.364;6.580;2023-06-26T13:10:37;7.17;;;5.80;;
60306;SDS011;46155;52.364;6.580;2023-06-26T13:13:02;5.27;;;4.87;;
60306;SDS011;46155;52.364;6.580;2023-06-26T13:15:27;6.23;;;5.53;;
60306;SDS011;46155;52.364;6.580;2023-06-26T13:17:53;10.80;;;5.47;;
60306;SDS011;46155;52.364;6.580;2023-06-26T13:20:18;6.47;;;5.67;;
60306;SDS011;46155;52.364;6.580;2023-06-26T13:22:43;5.97;;;5.63;;
60306;SDS011;46155;52.364;6.580;2023-06-26T13:25:11;6.83;;;6.27;;
60306;SDS011;46155;52.364;6.580;2023-06-26T13:27:36;9.33;;;5.40;;
60306;SDS011;46155;52.364;6.580;2023-06-26T13:30:02;6.23;;;5.83;;
60306;SDS011;46155;52.364;6.580;2023-06-26T13:32:27;6.40;;;5.90;;
60306;SDS011;46155;52.364;6.580;2023-06-26T13:34:52;6.07;;;5.47;;
60306;SDS011;46155;52.364;6.580;2023-06-26T13:37:19;6.87;;;6.20;;
60306;SDS011;46155;52.364;6.580;2023-06-26T13:39:44;6.90;;;5.77;;
60306;SDS011;46155;52.364;6.580;2023-06-26T13:42:14;9.90;;;6.17;;
60306;SDS011;46155;52.364;6.580;2023-06-26T13:44:40;5.97;;;5.20;;
60306;SDS011;46155;52.364;6.580;2023-06-26T13:47:06;6.50;;;5.80;;
60306;SDS011;46155;52.364;6.580;2023-06-26T13:49:31;7.13;;;5.70;;
60306;SDS011;46155;52.364;6.580;2023-06-26T13:51:57;5.90;;;5.60;;
60306;SDS011;46155;52.364;6.580;2023-06-26T13:54:22;6.03;;;5.63;;
60306;SDS011;46155;52.364;6.580;2023-06-26T13:56:47;6.53;;;5.83;;
60306;SDS011;46155;52.364;6.580;2023-06-26T13:59:12;6.43;;;5.90;;
60306;SDS011;46155;52.364;6.580;2023-06-26T14:01:39;6.43;;;5.83;;
60306;SDS011;46155;52.364;6.580;2023-06-26T14:04:07;7.13;;;5.93;;
60306;SDS011;46155;52.364;6.580;2023-06-26T14:06:33;7.67;;;4.93;;
60306;SDS011;46155;52.364;6.580;2023-06-26T14:08:59;5.70;;;5.30;;
60306;SDS011;46155;52.364;6.580;2023-06-26T14:11:25;6.33;;;5.27;;
60306;SDS011;46155;52.364;6.580;2023-06-26T14:13:51;8.20;;;5.30;;
60306;SDS011;46155;52.364;6.580;2023-06-26T14:16:16;7.20;;;5.23;;
60306;SDS011;46155;52.364;6.580;2023-06-26T14:18:43;8.80;;;5.30;;
60306;SDS011;46155;52.364;6.580;2023-06-26T14:21:09;5.03;;;4.63;;
60306;SDS011;46155;52.364;6.580;2023-06-26T14:23:34;5.27;;;4.87;;
60306;SDS011;46155;52.364;6.580;2023-06-26T14:26:00;5.40;;;4.53;;
60306;SDS011;46155;52.364;6.580;2023-06-26T14:28:25;6.23;;;5.10;;
60306;SDS011;46155;52.364;6.580;2023-06-26T14:30:51;6.30;;;5.30;;
60306;SDS011;46155;52.364;6.580;2023-06-26T14:33:16;9.07;;;5.63;;
60306;SDS011;46155;52.364;6.580;2023-06-26T14:35:41;7.83;;;5.10;;
60306;SDS011;46155;52.364;6.580;2023-06-26T14:38:07;5.53;;;5.03;;
60306;SDS011;46155;52.364;6.580;2023-06-26T14:40:32;5.33;;;4.87;;
60306;SDS011;46155;52.364;6.580;2023-06-26T14:42:57;7.33;;;5.20;;
60306;SDS011;46155;52.364;6.580;2023-06-26T14:45:23;5.70;;;5.30;;
60306;SDS011;46155;52.364;6.580;2023-06-26T14:47:48;5.63;;;5.10;;
60306;SDS011;46155;52.364;6.580;2023-06-26T14:50:13;6.07;;;5.57;;
60306;SDS011;46155;52.364;6.580;2023-06-26T14:52:39;5.17;;;4.77;;
60306;SDS011;46155;52.364;6.580;2023-06-26T14:55:04;8.03;;;5.40;;
60306;SDS011;46155;52.364;6.580;2023-06-26T14:57:30;6.33;;;5.20;;
60306;SDS011;46155;52.364;6.580;2023-06-26T14:59:55;6.40;;;5.80;;
60306;SDS011;46155;52.364;6.580;2023-06-26T15:02:21;5.90;;;5.50;;
60306;SDS011;46155;52.364;6.580;2023-06-26T15:04:46;5.73;;;5.23;;
60306;SDS011;46155;52.364;6.580;2023-06-26T15:07:11;5.50;;;5.10;;
60306;SDS011;46155;52.364;6.580;2023-06-26T15:09:37;9.90;;;5.30;;
60306;SDS011;46155;52.364;6.580;2023-06-26T15:12:02;5.93;;;5.23;;
60306;SDS011;46155;52.364;6.580;2023-06-26T15:14:28;5.63;;;5.33;;
60306;SDS011;46155;52.364;6.580;2023-06-26T15:16:53;8.00;;;5.10;;
60306;SDS011;46155;52.364;6.580;2023-06-26T15:19:19;5.63;;;5.23;;
60306;SDS011;46155;52.364;6.580;2023-06-26T15:21:44;5.00;;;4.73;;
60306;SDS011;46155;52.364;6.580;2023-06-26T15:24:09;5.60;;;5.10;;
60306;SDS011;46155;52.364;6.580;2023-06-26T15:26:35;6.07;;;5.30;;
60306;SDS011;46155;52.364;6.580;2023-06-26T15:29:01;5.17;;;4.67;;
60306;SDS011;46155;52.364;6.580;2023-06-26T15:31:28;5.97;;;5.40;;
60306;SDS011;46155;52.364;6.580;2023-06-26T15:33:55;8.80;;;4.80;;
60306;SDS011;46155;52.364;6.580;2023-06-26T15:36:20;5.70;;;5.10;;
60306;SDS011;46155;52.364;6.580;2023-06-26T15:38:46;5.83;;;5.37;;
60306;SDS011;46155;52.364;6.580;2023-06-26T15:41:12;6.87;;;5.30;;
60306;SDS011;46155;52.364;6.580;2023-06-26T15:43:37;6.10;;;5.47;;
60306;SDS011;46155;52.364;6.580;2023-06-26T15:46:04;5.73;;;5.20;;
60306;SDS011;46155;52.364;6.580;2023-06-26T15:48:31;5.80;;;5.30;;
60306;SDS011;46155;52.364;6.580;2023-06-26T15:50:57;5.83;;;5.23;;
60306;SDS011;46155;52.364;6.580;2023-06-26T15:53:33;5.40;;;5.10;;
60306;SDS011;46155;52.364;6.580;2023-06-26T15:56:10;5.97;;;5.53;;
60306;SDS011;46155;52.364;6.580;2023-06-26T15:58:36;5.47;;;5.03;;
60306;SDS011;46155;52.364;6.580;2023-06-26T16:01:09;5.07;;;4.60;;
60306;SDS011;46155;52.364;6.580;2023-06-26T16:03:39;5.93;;;5.43;;
60306;SDS011;46155;52.364;6.580;2023-06-26T16:06:05;5.30;;;5.00;;
60306;SDS011;46155;52.364;6.580;2023-06-26T16:08:31;5.83;;;5.47;;
60306;SDS011;46155;52.364;6.580;2023-06-26T16:10:57;5.50;;;4.97;;
60306;SDS011;46155;52.364;6.580;2023-06-26T16:13:22;5.63;;;5.17;;
60306;SDS011;46155;52.364;6.580;2023-06-26T16:15:48;5.67;;;5.20;;
60306;SDS011;46155;52.364;6.580;2023-06-26T16:18:14;5.50;;;5.20;;
60306;SDS011;46155;52.364;6.580;2023-06-26T16:20:40;5.50;;;5.20;;
60306;SDS011;46155;52.364;6.580;2023-06-26T16:23:06;5.87;;;5.33;;
60306;SDS011;46155;52.364;6.580;2023-06-26T16:25:31;6.10;;;5.27;;
60306;SDS011;46155;52.364;6.580;2023-06-26T16:27:57;5.50;;;5.00;;
60306;SDS011;46155;52.364;6.580;2023-06-26T16:30:23;5.10;;;4.80;;
60306;SDS011;46155;52.364;6.580;2023-06-26T16:32:48;5.87;;;4.97;;
60306;SDS011;46155;52.364;6.580;2023-06-26T16:35:14;8.40;;;4.60;;
60306;SDS011;46155;52.364;6.580;2023-06-26T16:37:39;5.40;;;5.00;;
60306;SDS011;46155;52.364;6.580;2023-06-26T16:40:04;8.47;;;5.13;;
60306;SDS011;46155;52.364;6.580;2023-06-26T16:42:30;5.80;;;5.23;;
60306;SDS011;46155;52.364;6.580;2023-06-26T16:44:56;5.87;;;5.23;;
60306;SDS011;46155;52.364;6.580;2023-06-26T16:47:21;5.10;;;4.50;;
60306;SDS011;46155;52.364;6.580;2023-06-26T16:49:46;5.70;;;5.30;;
60306;SDS011;46155;52.364;6.580;2023-06-26T16:52:12;5.37;;;4.87;;
60306;SDS011;46155;52.364;6.580;2023-06-26T16:54:37;5.90;;;5.40;;
60306;SDS011;46155;52.364;6.580;2023-06-26T16:57:03;5.37;;;4.97;;
60306;SDS011;46155;52.364;6.580;2023-06-26T16:59:28;5.60;;;5.23;;
60306;SDS011;46155;52.364;6.580;2023-06-26T17:01:54;5.80;;;5.33;;
60306;SDS011;46155;52.364;6.580;2023-06-26T17:04:21;5.20;;;4.77;;
60306;SDS011;46155;52.364;6.580;2023-06-26T17:06:47;5.50;;;5.00;;
60306;SDS011;46155;52.364;6.580;2023-06-26T17:09:12;6.07;;;4.70;;
60306;SDS011;46155;52.364;6.580;2023-06-26T17:11:38;5.63;;;5.13;;
60306;SDS011;46155;52.364;6.580;2023-06-26T17:14:06;4.90;;;4.60;;
60306;SDS011;46155;52.364;6.580;2023-06-26T17:16:31;5.80;;;5.23;;
60306;SDS011;46155;52.364;6.580;2023-06-26T17:18:57;5.93;;;5.33;;
60306;SDS011;46155;52.364;6.580;2023-06-26T17:21:22;5.77;;;5.00;;
60306;SDS011;46155;52.364;6.580;2023-06-26T17:23:48;6.03;;;5.27;;
60306;SDS011;46155;52.364;6.580;2023-06-26T17:26:13;5.70;;;5.30;;
60306;SDS011;46155;52.364;6.580;2023-06-26T17:28:38;6.10;;;5.27;;
60306;SDS011;46155;52.364;6.580;2023-06-26T17:31:04;5.63;;;4.97;;
60306;SDS011;46155;52.364;6.580;2023-06-26T17:33:30;5.00;;;4.60;;
60306;SDS011;46155;52.364;6.580;2023-06-26T17:35:56;6.37;;;5.10;;
60306;SDS011;46155;52.364;6.580;2023-06-26T17:38:22;5.00;;;4.60;;
60306;SDS011;46155;52.364;6.580;2023-06-26T17:40:47;5.57;;;5.10;;
60306;SDS011;46155;52.364;6.580;2023-06-26T17:43:12;9.20;;;5.10;;
60306;SDS011;46155;52.364;6.580;2023-06-26T17:45:38;6.07;;;5.30;;